createdAt,value
2019-02-23T00:00:55.733Z,102568.01
2019-02-23T00:01:59.969Z,102568.47
2019-02-23T00:03:03.964Z,102574.39
2019-02-23T00:04:07.806Z,102566.68
2019-02-23T00:05:11.989Z,102578.02
2019-02-23T00:06:16.084Z,102579.81
2019-02-23T00:07:19.994Z,102581.62
2019-02-23T00:08:24.084Z,102581.63
2019-02-23T00:09:28.179Z,102585.70
2019-02-23T00:10:32.125Z,102576.66
2019-02-23T00:11:36.352Z,102582.55
2019-02-23T00:12:40.956Z,102592.52
2019-02-23T00:13:45.731Z,102591.61
2019-02-23T00:14:49.985Z,102586.25
2019-02-23T00:15:54.227Z,102588.51
2019-02-23T00:16:58.398Z,102590.33
2019-02-23T00:18:02.641Z,102590.33
2019-02-23T00:19:06.626Z,102588.06
2019-02-23T00:20:10.635Z,102590.31
2019-02-23T00:21:14.805Z,102586.26
2019-02-23T00:22:18.790Z,102594.38
2019-02-23T00:23:22.628Z,102591.61
2019-02-23T00:24:26.470Z,102595.28
2019-02-23T00:25:30.401Z,102600.70
2019-02-23T00:26:34.489Z,102591.23
2019-02-23T00:27:38.333Z,102591.67
2019-02-23T00:28:42.336Z,102580.80
2019-02-23T00:29:46.680Z,102587.09
2019-02-23T00:30:50.864Z,102581.30
2019-02-23T00:31:55.341Z,102593.09
2019-02-23T00:32:59.687Z,102594.44
2019-02-23T00:34:04.093Z,102601.25
2019-02-23T00:35:08.349Z,102596.34
2019-02-23T00:36:12.510Z,102603.16
2019-02-23T00:37:16.849Z,102601.35
2019-02-23T00:38:20.765Z,102600.91
2019-02-23T00:39:24.678Z,102591.88
2019-02-23T00:40:28.608Z,102590.98
2019-02-23T00:41:33.090Z,102598.19
2019-02-23T00:42:37.005Z,102598.65
2019-02-23T00:43:40.923Z,102595.98
2019-02-23T00:44:45.085Z,102595.53
2019-02-23T00:45:49.366Z,102600.02
2019-02-23T00:46:53.489Z,102595.05
2019-02-23T00:47:58.001Z,102598.25
2019-02-23T00:49:02.518Z,102603.20
2019-02-23T00:50:06.826Z,102604.15
2019-02-23T00:51:11.359Z,102606.44
2019-02-23T00:52:16.051Z,102603.73
2019-02-23T00:53:20.155Z,102604.63
2019-02-23T00:54:24.884Z,102606.44
2019-02-23T00:55:29.054Z,102600.16
2019-02-23T00:56:33.059Z,102601.52
2019-02-23T00:57:37.228Z,102600.19
2019-02-23T00:58:41.416Z,102601.09
2019-02-23T00:59:45.505Z,102599.28
2019-02-23T01:00:50.375Z,102594.77
2019-02-23T01:01:54.288Z,102599.28
2019-02-23T01:02:59.159Z,102601.98
2019-02-23T01:04:03.462Z,102602.89
2019-02-23T01:05:07.654Z,102600.64
2019-02-23T01:06:12.000Z,102600.19
2019-02-23T01:07:16.571Z,102604.69
2019-02-23T01:08:21.379Z,102601.09
2019-02-23T01:09:25.595Z,102601.99
2019-02-23T01:10:29.841Z,102601.09
2019-02-23T01:11:33.751Z,102597.97
2019-02-23T01:12:37.663Z,102604.72
2019-02-23T01:13:41.793Z,102602.92
2019-02-23T01:14:45.633Z,102597.97
2019-02-23T01:15:49.629Z,102599.31
2019-02-23T01:16:53.609Z,102600.72
2019-02-23T01:17:58.030Z,102599.36
2019-02-23T01:19:02.274Z,102598.48
2019-02-23T01:20:07.609Z,102593.97
2019-02-23T01:21:11.621Z,102596.67
2019-02-23T01:22:15.536Z,102597.13
2019-02-23T01:23:20.271Z,102598.50
2019-02-23T01:24:24.198Z,102593.09
2019-02-23T01:25:28.527Z,102598.52
2019-02-23T01:26:32.892Z,102589.05
2019-02-23T01:27:36.885Z,102592.19
2019-02-23T01:28:41.002Z,102585.92
2019-02-23T01:29:44.841Z,102588.16
2019-02-23T01:30:49.059Z,102591.77
2019-02-23T01:31:53.228Z,102594.02
2019-02-23T01:32:57.217Z,102598.50
2019-02-23T01:34:02.022Z,102603.92
2019-02-23T01:35:06.920Z,102607.09
2019-02-23T01:36:11.412Z,102608.42
2019-02-23T01:37:15.895Z,102609.80
2019-02-23T01:38:20.128Z,102607.09
2019-02-23T01:39:24.287Z,102616.52
2019-02-23T01:40:28.274Z,102609.78
2019-02-23T01:41:32.447Z,102613.38
2019-02-23T01:42:36.352Z,102612.94
2019-02-23T01:43:40.259Z,102607.98
2019-02-23T01:44:44.351Z,102612.03
2019-02-23T01:45:48.533Z,102612.92
2019-02-23T01:46:52.373Z,102612.50
2019-02-23T01:47:56.790Z,102602.59
2019-02-23T01:49:01.123Z,102599.89
2019-02-23T01:50:05.362Z,102603.48
2019-02-23T01:51:09.797Z,102605.29
2019-02-23T01:52:13.946Z,102604.82
2019-02-23T01:53:18.184Z,102609.34
2019-02-23T01:54:22.340Z,102606.17
2019-02-23T01:55:26.254Z,102617.44
2019-02-23T01:56:30.779Z,102619.68
2019-02-23T01:57:34.660Z,102629.13
2019-02-23T01:58:39.092Z,102621.45
2019-02-23T01:59:43.256Z,102622.81
2019-02-23T02:00:47.415Z,102625.97
2019-02-23T02:01:51.657Z,102635.42
2019-02-23T02:02:55.892Z,102626.86
2019-02-23T02:03:59.732Z,102624.61
2019-02-23T02:05:04.252Z,102627.77
2019-02-23T02:06:08.176Z,102629.56
2019-02-23T02:07:12.513Z,102631.38
2019-02-23T02:08:16.499Z,102631.38
2019-02-23T02:09:20.652Z,102630.03
2019-02-23T02:10:24.810Z,102624.19
2019-02-23T02:11:28.674Z,102617.88
2019-02-23T02:12:32.812Z,102620.13
2019-02-23T02:13:37.320Z,102616.06
2019-02-23T02:14:41.231Z,102616.53
2019-02-23T02:15:45.431Z,102614.73
2019-02-23T02:16:50.053Z,102618.78
2019-02-23T02:17:54.093Z,102619.68
2019-02-23T02:18:58.389Z,102628.22
2019-02-23T02:20:10.476Z,102630.91
2019-02-23T02:21:08.938Z,102626.87
2019-02-23T02:22:13.184Z,102627.33
2019-02-23T02:23:17.330Z,102634.08
2019-02-23T02:24:21.173Z,102627.76
2019-02-23T02:25:25.024Z,102638.56
2019-02-23T02:26:29.034Z,102637.67
2019-02-23T02:27:32.974Z,102642.19
2019-02-23T02:28:36.891Z,102638.15
2019-02-23T02:29:41.180Z,102643.52
2019-02-23T02:30:45.056Z,102645.77
2019-02-23T02:31:49.312Z,102639.47
2019-02-23T02:32:53.432Z,102633.17
2019-02-23T02:34:08.415Z,102631.83
2019-02-23T02:35:12.705Z,102626.87
2019-02-23T02:36:17.153Z,102638.12
2019-02-23T02:37:21.629Z,102636.77
2019-02-23T02:38:26.243Z,102635.42
2019-02-23T02:39:30.583Z,102633.20
2019-02-23T02:40:34.988Z,102626.89
2019-02-23T02:41:38.986Z,102631.39
2019-02-23T02:42:43.245Z,102630.05
2019-02-23T02:43:47.176Z,102628.22
2019-02-23T02:44:52.098Z,102637.25
2019-02-23T02:45:56.305Z,102633.65
2019-02-23T02:47:00.150Z,102637.25
2019-02-23T02:48:04.155Z,102631.37
2019-02-23T02:49:08.435Z,102632.30
2019-02-23T02:50:23.672Z,102639.92
2019-02-23T02:51:18.743Z,102636.33
2019-02-23T02:52:23.097Z,102636.78
2019-02-23T02:53:27.296Z,102635.88
2019-02-23T02:54:31.495Z,102634.09
2019-02-23T02:55:35.712Z,102633.64
2019-02-23T02:56:39.693Z,102633.20
2019-02-23T02:57:43.897Z,102633.66
2019-02-23T02:58:48.303Z,102629.14
2019-02-23T02:59:52.285Z,102625.98
2019-02-23T03:00:56.830Z,102629.13
2019-02-23T03:02:01.140Z,102633.19
2019-02-23T03:03:04.983Z,102633.63
2019-02-23T03:04:09.337Z,102638.15
2019-02-23T03:05:14.137Z,102632.75
2019-02-23T03:06:18.057Z,102641.73
2019-02-23T03:07:22.768Z,102635.45
2019-02-23T03:08:27.005Z,102637.67
2019-02-23T03:09:31.494Z,102639.47
2019-02-23T03:10:35.700Z,102640.37
2019-02-23T03:11:39.737Z,102639.95
2019-02-23T03:12:43.600Z,102633.65
2019-02-23T03:13:47.869Z,102631.85
2019-02-23T03:14:52.323Z,102636.77
2019-02-23T03:15:56.828Z,102636.34
2019-02-23T03:17:01.069Z,102639.48
2019-02-23T03:18:05.217Z,102648.02
2019-02-23T03:19:09.773Z,102642.16
2019-02-23T03:20:14.162Z,102652.05
2019-02-23T03:21:17.997Z,102649.34
2019-02-23T03:22:22.083Z,102662.86
2019-02-23T03:23:25.994Z,102651.61
2019-02-23T03:24:30.173Z,102661.95
2019-02-23T03:25:34.319Z,102646.64
2019-02-23T03:26:38.555Z,102649.79
2019-02-23T03:27:42.976Z,102650.67
2019-02-23T03:28:46.895Z,102654.72
2019-02-23T03:29:50.745Z,102646.64
2019-02-23T03:30:54.723Z,102652.00
2019-02-23T03:31:58.561Z,102647.05
2019-02-23T03:33:02.513Z,102655.15
2019-02-23T03:34:06.774Z,102656.97
2019-02-23T03:35:10.962Z,102653.80
2019-02-23T03:36:15.115Z,102656.04
2019-02-23T03:37:19.207Z,102657.41
2019-02-23T03:38:23.300Z,102648.39
2019-02-23T03:39:27.415Z,102652.92
2019-02-23T03:40:31.398Z,102650.66
2019-02-23T03:41:35.642Z,102649.30
2019-02-23T03:42:39.818Z,102647.06
2019-02-23T03:43:44.223Z,102641.67
2019-02-23T03:44:48.641Z,102638.95
2019-02-23T03:45:52.476Z,102630.88
2019-02-23T03:46:56.631Z,102629.05
2019-02-23T03:48:01.356Z,102625.03
2019-02-23T03:49:05.859Z,102625.00
2019-02-23T03:50:09.852Z,102626.37
2019-02-23T03:51:14.087Z,102622.76
2019-02-23T03:52:18.324Z,102623.23
2019-02-23T03:53:22.576Z,102619.63
2019-02-23T03:54:26.807Z,102622.78
2019-02-23T03:55:30.719Z,102627.72
2019-02-23T03:56:35.204Z,102622.30
2019-02-23T03:57:39.541Z,102614.64
2019-02-23T03:58:43.736Z,102606.99
2019-02-23T03:59:47.930Z,102603.42
2019-02-23T04:00:51.920Z,102613.32
2019-02-23T04:01:57.001Z,102614.22
2019-02-23T04:03:00.924Z,102615.11
2019-02-23T04:04:04.911Z,102612.87
2019-02-23T04:05:09.758Z,102622.30
2019-02-23T04:06:13.663Z,102618.25
2019-02-23T04:07:18.189Z,102617.38
2019-02-23T04:08:22.113Z,102627.27
2019-02-23T04:09:26.393Z,102631.77
2019-02-23T04:10:30.599Z,102626.37
2019-02-23T04:11:34.515Z,102626.36
2019-02-23T04:12:38.820Z,102624.56
2019-02-23T04:13:43.316Z,102629.52
2019-02-23T04:14:47.499Z,102621.42
2019-02-23T04:15:51.415Z,102634.02
2019-02-23T04:16:55.451Z,102640.77
2019-02-23T04:18:00.056Z,102640.77
2019-02-23T04:19:04.351Z,102643.92
2019-02-23T04:20:08.372Z,102644.38
2019-02-23T04:21:12.552Z,102649.33
2019-02-23T04:22:16.662Z,102646.63
2019-02-23T04:23:21.086Z,102647.52
2019-02-23T04:24:25.282Z,102644.81
2019-02-23T04:25:29.141Z,102643.91
2019-02-23T04:26:32.990Z,102641.23
2019-02-23T04:27:36.910Z,102638.52
2019-02-23T04:28:41.607Z,102631.30
2019-02-23T04:29:47.029Z,102632.22
2019-02-23T04:30:51.023Z,102623.67
2019-02-23T04:31:55.175Z,102620.52
2019-02-23T04:32:59.861Z,102613.31
2019-02-23T04:34:04.270Z,102617.37
2019-02-23T04:35:08.532Z,102603.35
2019-02-23T04:36:12.683Z,102615.49
2019-02-23T04:37:16.777Z,102617.30
2019-02-23T04:38:20.614Z,102619.52
2019-02-23T04:39:24.951Z,102620.41
2019-02-23T04:40:28.792Z,102623.11
2019-02-23T04:41:33.587Z,102621.73
2019-02-23T04:42:37.693Z,102624.44
2019-02-23T04:43:44.239Z,102621.27
2019-02-23T04:44:48.644Z,102616.75
2019-02-23T04:45:52.563Z,102617.66
2019-02-23T04:46:56.653Z,102614.05
2019-02-23T04:48:00.492Z,102617.63
2019-02-23T04:49:04.645Z,102617.16
2019-02-23T04:50:09.022Z,102614.92
2019-02-23T04:51:14.625Z,102620.74
2019-02-23T04:52:18.416Z,102614.89
2019-02-23T04:53:22.755Z,102616.25
2019-02-23T04:54:26.850Z,102629.73
2019-02-23T04:55:31.016Z,102624.80
2019-02-23T04:56:34.928Z,102622.55
2019-02-23T04:57:39.016Z,102621.18
2019-02-23T04:58:43.372Z,102625.22
2019-02-23T04:59:47.210Z,102614.42
2019-02-23T05:00:51.129Z,102618.00
2019-02-23T05:01:55.297Z,102613.51
2019-02-23T05:02:59.759Z,102606.78
2019-02-23T05:04:03.920Z,102616.66
2019-02-23T05:05:08.740Z,102604.03
2019-02-23T05:06:13.412Z,102608.98
2019-02-23T05:07:17.575Z,102600.88
2019-02-23T05:08:21.664Z,102610.71
2019-02-23T05:09:25.601Z,102606.64
2019-02-23T05:10:29.734Z,102610.67
2019-02-23T05:11:33.589Z,102615.57
2019-02-23T05:12:37.421Z,102616.46
2019-02-23T05:13:41.765Z,102612.83
2019-02-23T05:14:45.851Z,102611.48
2019-02-23T05:15:50.491Z,102604.70
2019-02-23T05:16:54.400Z,102606.92
2019-02-23T05:17:58.804Z,102602.45
2019-02-23T05:19:02.898Z,102603.35
2019-02-23T05:20:06.940Z,102604.23
2019-02-23T05:21:11.333Z,102604.23
2019-02-23T05:22:15.603Z,102599.31
2019-02-23T05:23:19.884Z,102600.66
2019-02-23T05:24:24.052Z,102602.47
2019-02-23T05:25:27.885Z,102600.66
2019-02-23T05:26:32.006Z,102596.21
2019-02-23T05:27:36.163Z,102597.57
2019-02-23T05:28:40.427Z,102592.61
2019-02-23T05:29:44.911Z,102601.59
2019-02-23T05:30:48.976Z,102594.84
2019-02-23T05:31:53.527Z,102595.30
2019-02-23T05:32:57.901Z,102600.27
2019-02-23T05:34:01.997Z,102591.72
2019-02-23T05:35:06.446Z,102585.87
2019-02-23T05:36:11.052Z,102595.30
2019-02-23T05:37:15.234Z,102590.36
2019-02-23T05:38:19.144Z,102590.34
2019-02-23T05:39:23.431Z,102597.06
2019-02-23T05:40:27.536Z,102596.16
2019-02-23T05:41:32.081Z,102602.89
2019-02-23T05:42:36.592Z,102601.11
2019-02-23T05:43:40.798Z,102601.50
2019-02-23T05:44:45.105Z,102596.09
2019-02-23T05:45:49.015Z,102604.17
2019-02-23T05:46:53.311Z,102609.95
2019-02-23T05:47:57.493Z,102610.81
2019-02-23T05:49:01.935Z,102606.30
2019-02-23T05:50:06.248Z,102609.43
2019-02-23T05:51:10.346Z,102607.58
2019-02-23T05:52:14.460Z,102607.14
2019-02-23T05:53:18.672Z,102605.29
2019-02-23T05:54:23.117Z,102608.80
2019-02-23T05:55:27.393Z,102612.84
2019-02-23T05:56:31.985Z,102604.70
2019-02-23T05:57:36.180Z,102614.12
2019-02-23T05:58:40.241Z,102617.19
2019-02-23T05:59:45.057Z,102612.27
2019-02-23T06:00:49.883Z,102614.89
2019-02-23T06:01:54.598Z,102609.83
2019-02-23T06:02:58.957Z,102614.67
2019-02-23T06:04:02.796Z,102604.84
2019-02-23T06:05:07.370Z,102616.91
2019-02-23T06:06:11.713Z,102608.23
2019-02-23T06:07:16.634Z,102620.22
2019-02-23T06:08:20.735Z,102621.05
2019-02-23T06:09:25.083Z,102616.94
2019-02-23T06:10:28.987Z,102619.57
2019-02-23T06:11:33.332Z,102624.05
2019-02-23T06:12:37.726Z,102625.81
2019-02-23T06:13:41.817Z,102628.03
2019-02-23T06:14:45.903Z,102619.95
2019-02-23T06:15:49.740Z,102624.86
2019-02-23T06:16:54.147Z,102627.11
2019-02-23T06:17:58.745Z,102623.47
2019-02-23T06:19:02.583Z,102627.88
2019-02-23T06:20:06.824Z,102629.20
2019-02-23T06:21:11.274Z,102627.41
2019-02-23T06:22:15.113Z,102634.55
2019-02-23T06:23:19.846Z,102625.12
2019-02-23T06:24:24.009Z,102630.00
2019-02-23T06:25:27.898Z,102628.20
2019-02-23T06:26:32.325Z,102627.73
2019-02-23T06:27:36.436Z,102627.70
2019-02-23T06:28:40.692Z,102628.58
2019-02-23T06:29:44.781Z,102630.36
2019-02-23T06:30:49.027Z,102601.45
2019-02-23T06:31:53.294Z,102629.44
2019-02-23T06:32:57.572Z,102630.31
2019-02-23T06:34:01.390Z,102628.97
2019-02-23T06:35:06.152Z,102635.25
2019-02-23T06:36:10.137Z,102635.66
2019-02-23T06:37:14.356Z,102634.73
2019-02-23T06:38:18.558Z,102638.77
2019-02-23T06:39:23.181Z,102626.64
2019-02-23T06:40:27.285Z,102632.92
2019-02-23T06:41:32.035Z,102625.80
2019-02-23T06:42:35.986Z,102632.48
2019-02-23T06:43:39.931Z,102629.83
2019-02-23T06:44:44.083Z,102626.64
2019-02-23T06:45:48.316Z,102622.59
2019-02-23T06:46:52.522Z,102627.50
2019-02-23T06:47:56.606Z,102626.56
2019-02-23T06:49:00.838Z,102626.09
2019-02-23T06:50:05.155Z,102618.91
2019-02-23T06:51:09.855Z,102625.63
2019-02-23T06:52:14.473Z,102620.23
2019-02-23T06:53:18.388Z,102628.27
2019-02-23T06:54:22.598Z,102626.02
2019-02-23T06:55:26.882Z,102626.45
2019-02-23T06:56:31.105Z,102629.17
2019-02-23T06:57:35.616Z,102623.80
2019-02-23T06:58:40.154Z,102627.42
2019-02-23T06:59:44.811Z,102631.00
2019-02-23T07:00:48.896Z,102629.66
2019-02-23T07:01:53.070Z,102634.59
2019-02-23T07:02:56.975Z,102638.66
2019-02-23T07:04:01.419Z,102634.19
2019-02-23T07:05:05.897Z,102635.09
2019-02-23T07:06:10.425Z,102635.09
2019-02-23T07:07:14.588Z,102634.68
2019-02-23T07:08:18.777Z,102630.20
2019-02-23T07:09:22.860Z,102628.89
2019-02-23T07:10:26.701Z,102632.89
2019-02-23T07:11:30.541Z,102635.58
2019-02-23T07:12:34.629Z,102635.14
2019-02-23T07:13:41.802Z,102646.77
2019-02-23T07:14:45.645Z,102643.64
2019-02-23T07:15:49.473Z,102652.60
2019-02-23T07:16:53.708Z,102651.70
2019-02-23T07:17:57.615Z,102652.16
2019-02-23T07:19:01.780Z,102657.53
2019-02-23T07:20:06.117Z,102660.69
2019-02-23T07:21:10.276Z,102662.44
2019-02-23T07:22:15.781Z,102665.19
2019-02-23T07:23:20.253Z,102662.91
2019-02-23T07:24:24.088Z,102660.22
2019-02-23T07:25:28.519Z,102657.56
2019-02-23T07:26:32.683Z,102663.02
2019-02-23T07:27:36.526Z,102664.77
2019-02-23T07:28:40.611Z,102670.62
2019-02-23T07:29:44.716Z,102671.08
2019-02-23T07:30:49.123Z,102674.65
2019-02-23T07:31:53.463Z,102669.74
2019-02-23T07:32:58.128Z,102680.48
2019-02-23T07:34:02.292Z,102672.94
2019-02-23T07:35:06.611Z,102675.98
2019-02-23T07:36:10.976Z,102675.08
2019-02-23T07:37:15.103Z,102674.65
2019-02-23T07:38:19.618Z,102673.77
2019-02-23T07:39:23.973Z,102674.20
2019-02-23T07:40:28.200Z,102679.14
2019-02-23T07:41:32.335Z,102683.66
2019-02-23T07:42:36.262Z,102685.53
2019-02-23T07:43:40.445Z,102686.88
2019-02-23T07:44:44.649Z,102691.37
2019-02-23T07:45:48.836Z,102691.86
2019-02-23T07:46:53.055Z,102694.03
2019-02-23T07:47:57.538Z,102695.34
2019-02-23T07:49:01.981Z,102696.69
2019-02-23T07:50:07.373Z,102689.97
2019-02-23T07:51:11.516Z,102703.00
2019-02-23T07:52:25.709Z,102701.66
2019-02-23T07:53:21.382Z,102711.93
2019-02-23T07:54:25.610Z,102703.08
2019-02-23T07:55:30.091Z,102705.77
2019-02-23T07:56:35.173Z,102715.61
2019-02-23T07:57:39.268Z,102711.61
2019-02-23T07:58:43.823Z,102713.77
2019-02-23T07:59:48.411Z,102715.11
2019-02-23T08:00:52.404Z,102706.17
2019-02-23T08:01:56.492Z,102709.03
2019-02-23T08:03:00.719Z,102717.14
2019-02-23T08:04:04.705Z,102711.77
2019-02-23T08:05:09.147Z,102715.34
2019-02-23T08:06:13.656Z,102715.34
2019-02-23T08:07:17.636Z,102718.78
2019-02-23T08:08:22.128Z,102716.56
2019-02-23T08:09:26.565Z,102723.25
2019-02-23T08:10:30.967Z,102727.38
2019-02-23T08:11:35.646Z,102729.09
2019-02-23T08:12:39.802Z,102723.88
2019-02-23T08:13:43.898Z,102732.81
2019-02-23T08:14:48.234Z,102726.06
2019-02-23T08:15:52.583Z,102730.91
2019-02-23T08:16:56.662Z,102725.97
2019-02-23T08:18:00.577Z,102727.98
2019-02-23T08:19:04.557Z,102727.05
2019-02-23T08:20:08.777Z,102730.97
2019-02-23T08:21:12.708Z,102730.91
2019-02-23T08:22:16.784Z,102726.39
2019-02-23T08:23:21.522Z,102726.41
2019-02-23T08:24:25.427Z,102732.23
2019-02-23T08:25:29.754Z,102735.36
2019-02-23T08:26:33.681Z,102724.60
2019-02-23T08:27:38.091Z,102725.53
2019-02-23T08:28:42.705Z,102726.09
2019-02-23T08:29:46.863Z,102717.25
2019-02-23T08:30:50.870Z,102724.87
2019-02-23T08:31:55.103Z,102724.49
2019-02-23T08:32:59.193Z,102725.78
2019-02-23T08:34:03.539Z,102725.30
2019-02-23T08:35:07.862Z,102712.31
2019-02-23T08:36:12.295Z,102711.44
2019-02-23T08:37:16.791Z,102708.80
2019-02-23T08:38:20.634Z,102709.31
2019-02-23T08:39:24.800Z,102699.02
2019-02-23T08:40:29.218Z,102704.45
2019-02-23T08:41:33.649Z,102691.96
2019-02-23T08:42:37.903Z,102687.98
2019-02-23T08:43:41.800Z,102683.96
2019-02-23T08:44:45.899Z,102675.06
2019-02-23T08:45:49.732Z,102677.78
2019-02-23T08:46:54.160Z,102688.11
2019-02-23T08:47:58.514Z,102682.78
2019-02-23T08:49:02.786Z,102689.09
2019-02-23T08:50:08.838Z,102688.69
2019-02-23T08:51:13.309Z,102693.63
2019-02-23T08:52:18.366Z,102694.58
2019-02-23T08:53:22.616Z,102701.33
2019-02-23T08:54:27.437Z,102706.75
2019-02-23T08:55:31.957Z,102698.22
2019-02-23T08:56:36.363Z,102700.13
2019-02-23T08:57:40.568Z,102702.36
2019-02-23T08:58:45.385Z,102702.83
2019-02-23T08:59:49.716Z,102688.91
2019-02-23T09:00:54.413Z,102692.07
2019-02-23T09:01:58.820Z,102694.81
2019-02-23T09:03:03.133Z,102692.58
2019-02-23T09:04:07.103Z,102701.12
2019-02-23T09:05:12.083Z,102704.70
2019-02-23T09:06:16.601Z,102694.86
2019-02-23T09:07:21.402Z,102693.52
2019-02-23T09:08:25.649Z,102684.16
2019-02-23T09:09:30.108Z,102687.73
2019-02-23T09:10:34.286Z,102687.30
2019-02-23T09:11:38.822Z,102697.18
2019-02-23T09:12:43.130Z,102699.39
2019-02-23T09:13:47.237Z,102700.77
2019-02-23T09:14:51.620Z,102699.00
2019-02-23T09:15:55.976Z,102699.00
2019-02-23T09:17:00.166Z,102695.45
2019-02-23T09:18:04.334Z,102689.20
2019-02-23T09:19:08.414Z,102696.43
2019-02-23T09:20:12.894Z,102698.75
2019-02-23T09:21:16.981Z,102693.89
2019-02-23T09:22:21.702Z,102688.11
2019-02-23T09:23:26.008Z,102686.73
2019-02-23T09:24:30.189Z,102685.39
2019-02-23T09:25:34.025Z,102683.16
2019-02-23T09:26:38.935Z,102684.09
2019-02-23T09:27:43.358Z,102680.50
2019-02-23T09:28:47.784Z,102680.51
2019-02-23T09:29:52.271Z,102680.13
2019-02-23T09:30:57.191Z,102679.70
2019-02-23T09:32:01.423Z,102681.95
2019-02-23T09:33:05.718Z,102685.11
2019-02-23T09:34:10.216Z,102681.53
2019-02-23T09:35:14.450Z,102687.80
2019-02-23T09:36:18.356Z,102689.17
2019-02-23T09:37:22.649Z,102692.36
2019-02-23T09:38:26.497Z,102698.67
2019-02-23T09:39:30.733Z,102698.25
2019-02-23T09:40:35.288Z,102697.83
2019-02-23T09:41:39.756Z,102694.23
2019-02-23T09:42:43.928Z,102695.61
2019-02-23T09:43:47.879Z,102706.45
2019-02-23T09:44:52.119Z,102710.50
2019-02-23T09:45:56.393Z,102697.92
2019-02-23T09:47:01.097Z,102707.41
2019-02-23T09:48:05.707Z,102711.89
2019-02-23T09:49:10.384Z,102712.81
2019-02-23T09:50:15.152Z,102710.61
2019-02-23T09:51:19.234Z,102714.63
2019-02-23T09:52:23.644Z,102716.03
2019-02-23T09:53:27.986Z,102725.02
2019-02-23T09:54:32.397Z,102716.95
2019-02-23T09:55:36.774Z,102720.10
2019-02-23T09:56:41.110Z,102720.13
2019-02-23T09:57:45.539Z,102710.70
2019-02-23T09:58:49.439Z,102713.42
2019-02-23T09:59:53.532Z,102710.28
2019-02-23T10:00:57.685Z,102713.93
2019-02-23T10:02:02.417Z,102717.98
2019-02-23T10:03:06.402Z,102713.52
2019-02-23T10:04:10.823Z,102717.62
2019-02-23T10:05:15.089Z,102719.36
2019-02-23T10:06:18.929Z,102724.77
2019-02-23T10:07:23.159Z,102717.13
2019-02-23T10:08:27.334Z,102722.59
2019-02-23T10:09:31.949Z,102721.69
2019-02-23T10:10:36.856Z,102704.60
2019-02-23T10:11:40.691Z,102701.94
2019-02-23T10:12:44.784Z,102706.42
2019-02-23T10:13:48.887Z,102693.87
2019-02-23T10:14:53.321Z,102694.77
2019-02-23T10:15:57.474Z,102688.95
2019-02-23T10:17:01.384Z,102682.17
2019-02-23T10:18:05.377Z,102679.05
2019-02-23T10:19:09.650Z,102677.24
2019-02-23T10:20:14.234Z,102676.80
2019-02-23T10:21:18.264Z,102671.42
2019-02-23T10:22:22.675Z,102672.30
2019-02-23T10:23:26.856Z,102671.43
2019-02-23T10:24:31.215Z,102669.63
2019-02-23T10:25:35.670Z,102663.80
2019-02-23T10:26:39.838Z,102667.39
2019-02-23T10:27:44.396Z,102669.20
2019-02-23T10:28:48.314Z,102665.59
2019-02-23T10:29:52.415Z,102659.74
2019-02-23T10:30:56.577Z,102662.44
2019-02-23T10:32:00.701Z,102659.30
2019-02-23T10:33:04.810Z,102660.66
2019-02-23T10:34:09.096Z,102655.27
2019-02-23T10:35:13.409Z,102655.26
2019-02-23T10:36:17.606Z,102650.73
2019-02-23T10:37:21.731Z,102646.71
2019-02-23T10:38:26.286Z,102641.73
2019-02-23T10:39:30.144Z,102644.44
2019-02-23T10:40:34.655Z,102640.39
2019-02-23T10:41:38.640Z,102645.80
2019-02-23T10:42:43.477Z,102642.64
2019-02-23T10:43:47.313Z,102640.39
2019-02-23T10:44:51.496Z,102630.94
2019-02-23T10:45:55.792Z,102639.02
2019-02-23T10:47:00.245Z,102629.56
2019-02-23T10:48:04.156Z,102634.53
2019-02-23T10:49:08.607Z,102638.59
2019-02-23T10:50:12.730Z,102636.34
2019-02-23T10:51:16.717Z,102642.20
2019-02-23T10:52:21.225Z,102643.52
2019-02-23T10:53:32.648Z,102640.81
2019-02-23T10:54:31.423Z,102644.88
2019-02-23T10:55:35.345Z,102635.42
2019-02-23T10:56:39.791Z,102636.32
2019-02-23T10:57:43.625Z,102634.07
2019-02-23T10:58:47.494Z,102637.66
2019-02-23T10:59:51.692Z,102636.30
2019-02-23T11:00:55.844Z,102641.27
2019-02-23T11:02:00.527Z,102647.13
2019-02-23T11:03:04.454Z,102637.18
2019-02-23T11:04:09.129Z,102639.89
2019-02-23T11:05:13.809Z,102646.20
2019-02-23T11:06:18.211Z,102642.58
2019-02-23T11:07:22.116Z,102641.22
2019-02-23T11:08:26.018Z,102638.50
2019-02-23T11:09:34.614Z,102642.09
2019-02-23T11:10:39.040Z,102643.45
2019-02-23T11:11:43.762Z,102645.71
2019-02-23T11:12:47.925Z,102653.83
2019-02-23T11:13:51.908Z,102656.08
2019-02-23T11:14:55.892Z,102663.27
2019-02-23T11:16:00.059Z,102660.53
2019-02-23T11:17:04.048Z,102663.72
2019-02-23T11:18:08.212Z,102661.46
2019-02-23T11:19:12.616Z,102653.80
2019-02-23T11:20:17.374Z,102659.66
2019-02-23T11:21:21.855Z,102649.72
2019-02-23T11:22:26.183Z,102662.80
2019-02-23T11:23:30.670Z,102662.79
2019-02-23T11:24:34.909Z,102653.33
2019-02-23T11:25:38.899Z,102662.34
2019-02-23T11:26:42.808Z,102662.79
2019-02-23T11:27:47.266Z,102666.39
2019-02-23T11:28:51.520Z,102670.87
2019-02-23T11:29:55.754Z,102667.72
2019-02-23T11:31:00.229Z,102661.41
2019-02-23T11:32:04.219Z,102666.34
2019-02-23T11:33:08.145Z,102658.67
2019-02-23T11:34:12.546Z,102655.03
2019-02-23T11:35:17.560Z,102647.37
2019-02-23T11:36:22.055Z,102645.11
2019-02-23T11:37:26.311Z,102635.64
2019-02-23T11:38:30.300Z,102636.99
2019-02-23T11:39:35.137Z,102631.58
2019-02-23T11:40:39.050Z,102632.44
2019-02-23T11:41:43.597Z,102635.59
2019-02-23T11:42:47.523Z,102634.24
2019-02-23T11:43:51.704Z,102638.75
2019-02-23T11:44:56.320Z,102632.44
2019-02-23T11:46:00.201Z,102628.83
2019-02-23T11:47:04.525Z,102629.69
2019-02-23T11:48:08.522Z,102633.74
2019-02-23T11:49:12.805Z,102623.81
2019-02-23T11:50:17.098Z,102615.66
2019-02-23T11:51:20.964Z,102618.36
2019-02-23T11:52:25.200Z,102621.47
2019-02-23T11:53:29.451Z,102614.19
2019-02-23T11:54:33.365Z,102615.03
2019-02-23T11:55:37.655Z,102607.75
2019-02-23T11:56:41.590Z,102615.42
2019-02-23T11:57:45.869Z,102615.88
2019-02-23T11:58:50.101Z,102612.21
2019-02-23T11:59:54.379Z,102619.87
2019-02-23T12:00:58.895Z,102613.49
2019-02-23T12:02:03.011Z,102606.72
2019-02-23T12:03:07.336Z,102593.61
2019-02-23T12:04:11.928Z,102598.07
2019-02-23T12:05:16.601Z,102601.66
2019-02-23T12:06:20.531Z,102620.58
2019-02-23T12:07:24.460Z,102603.84
2019-02-23T12:08:28.650Z,102595.28
2019-02-23T12:09:33.150Z,102592.13
2019-02-23T12:10:37.309Z,102591.67
2019-02-23T12:11:41.494Z,102584.42
2019-02-23T12:12:45.404Z,102587.09
2019-02-23T12:13:49.386Z,102583.01